Time;durP1;ratioP1;P1;durP2;ratioP2;P2;SDS_P1;SDS_P2;PMS_P1;PMS_P2;Temp;Humidity;BMP_temperature;BMP_pressure;BME280_temperature;BME280_humidity;BME280_pressure;Samples;Min_cycle;Max_cycle;Signal;HPM_P1;HPM_P2
2022/10/12 00:00:13;;;;;;;8.20;3.83;;;9.50;99.90;;;;;;5091828;28;20506;-42
2022/10/12 00:02:39;;;;;;;10.88;4.47;;;9.50;99.90;;;;;;5090289;28;20024;-41
2022/10/12 00:05:05;;;;;;;9.25;4.05;;;9.40;99.90;;;;;;5081599;28;20025;-40
2022/10/12 00:07:31;;;;;;;11.63;4.55;;;9.50;99.90;;;;;;5085940;28;20081;-43
2022/10/12 00:09:57;;;;;;;9.32;3.60;;;9.50;99.90;;;;;;5076550;28;20017;-41
2022/10/12 00:12:22;;;;;;;11.93;4.07;;;9.50;99.90;;;;;;5091152;28;20144;-59
2022/10/12 00:14:48;;;;;;;7.88;3.88;;;9.50;99.90;;;;;;5089668;28;20459;-41
2022/10/12 00:17:13;;;;;;;8.20;3.47;;;9.50;99.90;;;;;;5089050;28;20024;-42
2022/10/12 00:19:39;;;;;;;7.03;3.97;;;9.50;99.90;;;;;;5080634;28;20028;-38
2022/10/12 00:22:05;;;;;;;12.50;3.88;;;9.50;99.90;;;;;;5081420;28;20032;-41
2022/10/12 00:24:31;;;;;;;11.27;3.83;;;9.50;99.90;;;;;;5093020;28;20028;-41
2022/10/12 00:26:56;;;;;;;8.35;4.13;;;9.50;99.90;;;;;;5080893;28;20105;-41
2022/10/12 00:29:22;;;;;;;18.98;3.85;;;9.50;99.90;;;;;;5085830;28;20078;-40
2022/10/12 00:31:48;;;;;;;6.80;3.58;;;9.60;99.90;;;;;;5086864;28;20388;-42
2022/10/12 00:34:13;;;;;;;12.90;3.78;;;9.50;99.90;;;;;;5082967;28;20025;-48
2022/10/12 00:36:39;;;;;;;8.88;3.75;;;9.50;99.90;;;;;;5070893;28;20436;-42
2022/10/12 00:39:07;;;;;;;17.88;4.38;;;9.50;99.90;;;;;;5059046;28;20553;-41
2022/10/12 00:41:36;;;;;;;13.10;4.80;;;9.40;99.90;;;;;;5087404;28;20519;-41
2022/10/12 00:44:02;;;;;;;16.38;4.90;;;9.40;99.90;;;;;;5089899;28;20024;-41
2022/10/12 00:46:53;;;;;;;14.48;4.85;;;9.30;99.90;;;;;;5092131;28;20069;-40
2022/10/12 00:49:24;;;;;;;10.02;3.95;;;9.30;99.90;;;;;;5088231;28;20491;-42
2022/10/12 00:52:03;;;;;;;14.10;5.00;;;9.30;99.90;;;;;;5081279;28;20531;-42
2022/10/12 00:54:34;;;;;;;15.80;4.43;;;9.30;99.90;;;;;;5091970;28;20031;-42
2022/10/12 00:57:03;;;;;;;8.88;3.72;;;9.30;99.90;;;;;;5082294;28;20749;-40
2022/10/12 00:59:56;;;;;;;8.18;3.83;;;9.30;99.90;;;;;;5080798;28;20040;-42
2022/10/12 01:02:24;;;;;;;10.57;4.72;;;9.20;99.90;;;;;;5072178;28;20021;-41
2022/10/12 01:04:49;;;;;;;10.30;4.97;;;9.20;99.90;;;;;;5060880;28;20024;-42
2022/10/12 01:07:15;;;;;;;9.82;4.30;;;9.20;99.90;;;;;;5090094;28;20530;-43
2022/10/12 01:09:41;;;;;;;11.15;4.68;;;9.30;99.90;;;;;;5091027;28;20039;-42
2022/10/12 01:12:08;;;;;;;11.52;4.10;;;9.30;99.90;;;;;;5056965;28;20028;-44
2022/10/12 01:14:34;;;;;;;7.65;4.07;;;9.30;99.90;;;;;;5087929;28;20052;-42
2022/10/12 01:17:30;;;;;;;9.98;4.00;;;9.20;99.90;;;;;;5083302;28;21358;-43
2022/10/12 01:20:16;;;;;;;14.63;4.68;;;9.20;99.90;;;;;;5089700;28;20546;-43
2022/10/12 01:23:01;;;;;;;10.18;4.18;;;9.20;99.90;;;;;;5078258;28;20383;-40
2022/10/12 01:26:05;;;;;;;9.75;4.20;;;9.20;99.90;;;;;;5084598;28;20400;-41
2022/10/12 01:28:55;;;;;;;8.15;3.88;;;9.20;99.90;;;;;;5073740;28;20048;-41
2022/10/12 01:31:37;;;;;;;7.03;3.38;;;9.20;99.90;;;;;;5084557;28;20114;-42
2022/10/12 01:34:25;;;;;;;8.88;3.92;;;9.20;99.90;;;;;;5087998;28;20043;-41
2022/10/12 01:37:06;;;;;;;8.65;3.78;;;9.20;99.90;;;;;;5087839;28;20110;-40
2022/10/12 01:39:45;;;;;;;11.02;4.25;;;9.20;99.90;;;;;;5083830;28;20396;-43
2022/10/12 01:42:16;;;;;;;11.02;4.20;;;9.20;99.90;;;;;;5085469;28;20480;-47
2022/10/12 01:44:42;;;;;;;8.60;3.88;;;9.10;99.90;;;;;;5057983;28;20031;-40
2022/10/12 01:47:08;;;;;;;6.88;3.38;;;9.10;99.90;;;;;;5076314;28;20527;-40
2022/10/12 01:49:34;;;;;;;8.57;3.40;;;9.10;99.90;;;;;;5068099;28;20139;-41
2022/10/12 01:52:26;;;;;;;5.68;3.30;;;9.10;99.90;;;;;;5081312;28;20481;-42
2022/10/12 01:55:10;;;;;;;7.28;4.13;;;9.00;99.90;;;;;;5076135;28;20024;-36
2022/10/12 01:58:04;;;;;;;8.93;4.03;;;8.90;99.90;;;;;;5077296;28;20036;-60
2022/10/12 02:00:37;;;;;;;10.45;3.42;;;8.90;99.90;;;;;;5074932;28;20033;-41
2022/10/12 02:03:25;;;;;;;10.70;3.85;;;8.90;99.90;;;;;;5075524;28;20533;-43
2022/10/12 02:05:53;;;;;;;;;;;8.90;99.90;;;;;;5091599;28;20032;-45
2022/10/12 02:08:46;;;;;;;5.75;3.00;;;8.90;99.90;;;;;;5090357;28;20355;-41
2022/10/12 02:11:15;;;;;;;13.65;3.92;;;8.90;99.90;;;;;;5082347;28;20599;-41
2022/10/12 02:13:52;;;;;;;10.98;3.92;;;8.90;99.90;;;;;;5086371;28;20016;-42
2022/10/12 02:16:21;;;;;;;5.25;2.35;;;8.90;99.90;;;;;;5081737;28;20472;-43
2022/10/12 02:18:50;;;;;;;8.18;3.25;;;8.90;99.90;;;;;;5090673;28;20028;-43
2022/10/12 02:21:21;;;;;;;7.03;3.55;;;8.90;99.90;;;;;;5079497;28;20525;-41
2022/10/12 02:23:50;;;;;;;12.45;3.40;;;8.90;99.90;;;;;;5078167;28;20464;-42
2022/10/12 02:26:16;;;;;;;;;;;8.90;99.90;;;;;;5078692;28;20369;-42
2022/10/12 02:28:43;;;;;;;9.15;3.20;;;8.90;99.90;;;;;;5082425;28;19915;-40
2022/10/12 02:31:44;;;;;;;10.63;4.25;;;8.90;99.90;;;;;;5074343;28;20501;-42
2022/10/12 02:34:15;;;;;;;16.70;4.00;;;8.90;99.90;;;;;;5077634;28;20028;-41
2022/10/12 02:36:53;;;;;;;11.80;3.97;;;8.80;99.90;;;;;;5088322;28;20049;-38
2022/10/12 02:39:24;;;;;;;13.52;4.22;;;8.80;99.90;;;;;;5055942;28;20500;-42
2022/10/12 02:41:54;;;;;;;11.68;3.90;;;8.80;99.90;;;;;;5074054;28;20024;-43
2022/10/12 02:44:25;;;;;;;8.85;4.18;;;8.80;99.90;;;;;;5084934;28;20020;-40
2022/10/12 02:46:52;;;;;;;14.32;4.10;;;8.90;99.90;;;;;;5086495;28;20030;-41
2022/10/12 02:49:19;;;;;;;14.27;3.47;;;9.00;99.90;;;;;;5092704;28;20544;-44
2022/10/12 02:51:46;;;;;;;13.50;4.18;;;9.00;99.90;;;;;;5076465;28;20476;-37
2022/10/12 02:54:12;;;;;;;8.55;3.60;;;9.10;99.90;;;;;;5093669;28;20535;-41
2022/10/12 02:56:45;;;;;;;8.18;4.07;;;9.10;99.90;;;;;;5086086;28;20035;-41
2022/10/12 02:59:14;;;;;;;9.23;3.67;;;9.20;99.90;;;;;;5089417;28;20380;-41
2022/10/12 03:01:40;;;;;;;8.73;3.72;;;9.20;99.90;;;;;;5073602;28;20055;-41
2022/10/12 03:04:06;;;;;;;32.13;4.40;;;9.20;99.90;;;;;;5084943;28;20028;-42
2022/10/12 03:06:31;;;;;;;6.90;3.65;;;9.20;99.90;;;;;;5078242;28;20031;-43
2022/10/12 03:08:57;;;;;;;9.82;3.88;;;9.30;99.90;;;;;;5080937;28;20106;-43
2022/10/12 03:11:23;;;;;;;9.07;3.25;;;9.30;99.90;;;;;;5089276;28;20059;-42
2022/10/12 03:13:53;;;;;;;9.75;3.42;;;9.30;99.90;;;;;;5086552;28;20032;-40
2022/10/12 03:16:18;;;;;;;9.30;3.30;;;9.30;99.90;;;;;;5087567;28;20035;-41
2022/10/12 03:18:44;;;;;;;9.60;3.60;;;9.20;99.90;;;;;;5074752;28;20032;-41
2022/10/12 03:21:10;;;;;;;7.70;3.00;;;9.20;99.90;;;;;;5083888;28;20447;-43
2022/10/12 03:23:36;;;;;;;13.10;4.07;;;9.20;99.90;;;;;;5081625;28;20100;-40
2022/10/12 03:26:03;;;;;;;12.68;3.58;;;9.20;99.90;;;;;;5085115;28;20024;-43
2022/10/12 03:28:28;;;;;;;7.75;3.55;;;9.10;99.90;;;;;;5077137;28;20085;-41
2022/10/12 03:30:54;;;;;;;9.18;3.50;;;9.10;99.90;;;;;;5093903;28;20472;-44
2022/10/12 03:33:20;;;;;;;9.40;3.45;;;9.10;99.90;;;;;;5079605;28;20510;-40
2022/10/12 03:35:46;;;;;;;10.55;3.33;;;9.10;99.90;;;;;;5081125;28;20032;-35
2022/10/12 03:38:13;;;;;;;7.68;3.50;;;9.00;99.90;;;;;;5073508;28;20120;-33
2022/10/12 03:40:38;;;;;;;6.60;3.85;;;9.00;99.90;;;;;;5091271;28;20027;-34
2022/10/12 03:43:04;;;;;;;6.43;3.50;;;9.00;99.90;;;;;;5060381;28;20520;-34
2022/10/12 03:45:29;;;;;;;6.25;4.22;;;9.00;99.90;;;;;;5079164;28;20111;-32
2022/10/12 03:47:55;;;;;;;10.43;3.65;;;9.00;99.90;;;;;;5080474;28;20024;-37
2022/10/12 03:50:21;;;;;;;6.13;3.15;;;9.00;99.90;;;;;;5090475;28;20111;-31
2022/10/12 03:52:46;;;;;;;9.02;4.05;;;9.00;99.90;;;;;;5077258;28;20480;-32
2022/10/12 03:55:12;;;;;;;14.48;4.03;;;9.00;99.90;;;;;;5075250;28;20468;-35
2022/10/12 03:57:38;;;;;;;12.00;3.97;;;9.00;99.90;;;;;;5077161;28;20046;-35
2022/10/12 04:00:05;;;;;;;12.15;3.60;;;9.00;99.90;;;;;;5089446;28;20032;-61
2022/10/12 04:02:30;;;;;;;17.50;3.55;;;9.00;99.90;;;;;;5084412;28;20031;-33
2022/10/12 04:04:56;;;;;;;10.93;3.80;;;9.10;99.90;;;;;;5080316;28;20040;-32
2022/10/12 04:07:21;;;;;;;14.23;3.30;;;9.20;99.90;;;;;;5078866;28;20078;-42
2022/10/12 04:09:47;;;;;;;8.27;3.45;;;9.10;99.90;;;;;;5087448;28;20590;-32
2022/10/12 04:12:12;;;;;;;8.70;3.63;;;9.10;99.90;;;;;;5079790;28;20107;-32
2022/10/12 04:14:38;;;;;;;6.55;3.22;;;9.10;99.90;;;;;;5072418;28;20541;-34
2022/10/12 04:17:04;;;;;;;7.13;3.75;;;9.10;99.90;;;;;;5074379;28;20093;-40
2022/10/12 04:19:30;;;;;;;12.15;3.40;;;9.10;99.90;;;;;;5085956;28;20020;-40
2022/10/12 04:21:55;;;;;;;13.02;4.15;;;9.00;99.90;;;;;;5087703;28;20102;-41
2022/10/12 04:24:21;;;;;;;5.63;3.10;;;9.00;99.90;;;;;;5064745;28;20032;-41
2022/10/12 04:26:46;;;;;;;6.85;3.10;;;9.00;99.90;;;;;;5091268;28;20027;-41
2022/10/12 04:29:13;;;;;;;11.88;3.90;;;8.90;99.90;;;;;;5079529;28;20028;-39
2022/10/12 04:31:39;;;;;;;8.35;3.58;;;8.80;99.90;;;;;;5072199;28;20032;-40
2022/10/12 04:34:05;;;;;;;10.32;4.55;;;8.70;99.90;;;;;;5077139;28;20668;-42
2022/10/12 04:36:31;;;;;;;7.40;2.95;;;8.70;99.90;;;;;;5077043;28;20041;-40
2022/10/12 04:38:56;;;;;;;11.82;3.70;;;8.70;99.90;;;;;;5086420;28;20035;-41
2022/10/12 04:41:22;;;;;;;6.55;2.97;;;8.60;99.90;;;;;;5092200;28;20024;-35
2022/10/12 04:43:48;;;;;;;10.60;3.72;;;8.60;99.90;;;;;;5082979;28;20031;-32
2022/10/12 04:46:14;;;;;;;9.77;3.47;;;8.50;99.90;;;;;;5081782;28;20032;-41
2022/10/12 04:48:39;;;;;;;8.00;3.55;;;8.50;99.90;;;;;;5083996;28;20421;-72
2022/10/12 04:51:05;;;;;;;10.27;4.05;;;8.40;99.90;;;;;;5087804;28;20031;-41
2022/10/12 04:53:31;;;;;;;11.63;4.43;;;8.40;99.90;;;;;;5083537;28;20024;-38
2022/10/12 04:56:00;;;;;;;9.35;3.22;;;8.40;99.90;;;;;;5096103;28;20468;-34
2022/10/12 04:58:26;;;;;;;4.63;3.15;;;8.40;99.90;;;;;;5091599;28;20059;-38
2022/10/12 05:00:51;;;;;;;11.10;3.65;;;8.40;99.90;;;;;;5066384;28;20063;-34
2022/10/12 05:03:17;;;;;;;6.45;3.35;;;8.40;99.90;;;;;;5095713;28;20077;-44
2022/10/12 05:05:44;;;;;;;9.10;2.50;;;8.40;99.90;;;;;;5065355;28;20378;-44
2022/10/12 05:08:09;;;;;;;6.03;3.28;;;8.40;99.90;;;;;;5090261;28;20373;-40
2022/10/12 05:10:35;;;;;;;7.10;3.20;;;8.30;99.90;;;;;;5078021;28;20031;-39
2022/10/12 05:13:00;;;;;;;5.78;2.88;;;8.30;99.90;;;;;;5093145;28;20028;-40
2022/10/12 05:15:26;;;;;;;8.15;3.08;;;8.30;99.90;;;;;;5079004;28;20066;-40
2022/10/12 05:17:52;;;;;;;12.32;2.95;;;8.30;99.90;;;;;;5076215;28;20136;-41
2022/10/12 05:20:18;;;;;;;8.85;3.92;;;8.30;99.90;;;;;;5090523;28;20024;-42
2022/10/12 05:22:43;;;;;;;13.68;3.80;;;8.30;99.90;;;;;;5095266;28;20027;-40
2022/10/12 05:25:09;;;;;;;10.68;3.92;;;8.30;99.90;;;;;;5073343;28;20119;-41
2022/10/12 05:27:34;;;;;;;10.25;4.00;;;8.30;99.90;;;;;;5096559;28;20027;-50
2022/10/12 05:30:00;;;;;;;12.52;4.63;;;8.30;99.90;;;;;;5084160;28;20024;-42
2022/10/12 05:32:26;;;;;;;10.15;4.72;;;8.20;99.90;;;;;;5080193;28;20020;-44
2022/10/12 05:34:51;;;;;;;9.55;4.50;;;8.30;99.90;;;;;;5096078;28;20035;-41
2022/10/12 05:37:17;;;;;;;10.20;4.35;;;8.20;99.90;;;;;;5094852;28;20166;-41
2022/10/12 05:39:44;;;;;;;5.25;3.35;;;8.20;99.90;;;;;;5089885;28;20075;-40
2022/10/12 05:42:10;;;;;;;14.80;3.47;;;8.20;99.90;;;;;;5094898;28;20028;-41
2022/10/12 05:44:35;;;;;;;12.50;3.67;;;8.20;99.90;;;;;;5078282;28;20361;-41
2022/10/12 05:47:01;;;;;;;10.30;3.97;;;8.20;99.90;;;;;;5075689;28;20167;-41
2022/10/12 05:49:27;;;;;;;8.40;4.10;;;8.30;99.90;;;;;;5078053;28;20489;-41
2022/10/12 05:51:53;;;;;;;14.75;5.03;;;8.30;99.90;;;;;;5092876;28;20142;-41
2022/10/12 05:54:18;;;;;;;8.88;3.47;;;8.30;99.90;;;;;;5085998;28;20701;-44
2022/10/12 05:56:44;;;;;;;9.98;4.05;;;8.40;99.90;;;;;;5075137;28;20046;-39
2022/10/12 05:59:10;;;;;;;10.13;3.35;;;8.40;99.90;;;;;;5088507;28;20036;-42
2022/10/12 06:01:36;;;;;;;9.63;3.78;;;8.40;99.90;;;;;;5092557;28;20030;-47
2022/10/12 06:04:01;;;;;;;8.40;3.58;;;8.40;99.90;;;;;;5094922;28;20481;-42
2022/10/12 06:06:27;;;;;;;13.00;3.13;;;8.40;99.90;;;;;;5075206;28;20377;-41
2022/10/12 06:08:53;;;;;;;6.03;4.45;;;8.40;99.90;;;;;;5093998;28;20024;-42
2022/10/12 06:11:19;;;;;;;15.25;3.97;;;8.50;99.90;;;;;;5088402;28;20032;-61
2022/10/12 06:13:44;;;;;;;8.93;4.03;;;8.50;99.90;;;;;;5086020;28;20472;-43
2022/10/12 06:16:10;;;;;;;9.85;4.00;;;8.50;99.90;;;;;;5078457;28;20078;-42
2022/10/12 06:18:35;;;;;;;10.68;3.42;;;8.50;99.90;;;;;;5088726;28;20468;-42
2022/10/12 06:21:01;;;;;;;12.80;4.10;;;8.60;99.90;;;;;;5093218;28;20016;-46
2022/10/12 06:23:26;;;;;;;9.48;3.67;;;8.60;99.90;;;;;;5077055;28;20048;-42
2022/10/12 06:25:52;;;;;;;9.32;3.92;;;8.70;99.90;;;;;;5075767;28;20473;-42
2022/10/12 06:28:19;;;;;;;9.73;3.65;;;8.70;99.90;;;;;;5078311;28;20021;-42
2022/10/12 06:30:51;;;;;;;8.82;3.75;;;8.70;99.90;;;;;;5088359;28;20028;-42
2022/10/12 06:33:16;;;;;;;7.68;3.17;;;8.80;99.90;;;;;;5076773;28;20085;-43
2022/10/12 06:35:42;;;;;;;7.18;3.58;;;8.80;99.90;;;;;;5077994;28;20500;-66
2022/10/12 06:38:08;;;;;;;7.97;3.92;;;8.90;99.90;;;;;;5084412;28;20036;-40
2022/10/12 06:40:33;;;;;;;10.90;3.58;;;9.00;99.90;;;;;;5092677;28;20566;-44
2022/10/12 06:43:01;;;;;;;12.30;3.58;;;9.10;99.90;;;;;;5084332;28;20035;-43
2022/10/12 06:45:30;;;;;;;15.07;3.97;;;9.30;99.90;;;;;;5092802;28;20024;-38
2022/10/12 06:47:56;;;;;;;10.18;4.00;;;9.40;99.90;;;;;;5084815;28;20672;-43
2022/10/12 06:50:23;;;;;;;15.50;3.90;;;9.40;99.90;;;;;;5075362;28;20020;-36
2022/10/12 06:52:49;;;;;;;5.88;3.03;;;9.50;99.90;;;;;;5088037;28;20020;-41
2022/10/12 06:55:15;;;;;;;10.05;3.90;;;9.60;99.90;;;;;;5091870;28;20157;-40
2022/10/12 06:57:40;;;;;;;19.55;4.03;;;9.60;99.90;;;;;;5093406;28;20027;-48
2022/10/12 07:00:07;;;;;;;15.23;3.80;;;9.60;99.90;;;;;;5077694;28;20503;-44
2022/10/12 07:02:33;;;;;;;15.73;4.28;;;9.70;99.90;;;;;;5083444;28;20059;-41
2022/10/12 07:04:59;;;;;;;10.50;3.42;;;9.70;99.90;;;;;;5084225;28;20112;-43
2022/10/12 07:07:24;;;;;;;16.10;3.30;;;9.80;99.90;;;;;;5085755;28;20159;-43
2022/10/12 07:09:50;;;;;;;10.57;3.72;;;9.80;99.90;;;;;;5084158;28;20024;-41
2022/10/12 07:12:16;;;;;;;10.50;4.10;;;9.90;99.90;;;;;;5086314;28;20035;-41
2022/10/12 07:14:42;;;;;;;11.20;3.47;;;9.90;99.90;;;;;;5079948;28;20020;-41
2022/10/12 07:17:08;;;;;;;18.50;4.68;;;9.90;99.90;;;;;;5065202;28;20048;-41
2022/10/12 07:19:33;;;;;;;18.05;4.95;;;10.00;99.90;;;;;;5079857;28;20037;-41
2022/10/12 07:21:59;;;;;;;9.13;4.03;;;10.10;99.90;;;;;;5073971;28;20431;-42
2022/10/12 07:24:33;;;;;;;13.60;4.20;;;10.20;99.90;;;;;;5074332;28;20033;-41
2022/10/12 07:26:59;;;;;;;9.43;4.55;;;10.30;99.90;;;;;;5090460;28;20020;-40
2022/10/12 07:29:24;;;;;;;7.93;3.88;;;10.30;99.90;;;;;;5090631;28;20036;-41
2022/10/12 07:31:50;;;;;;;12.57;4.70;;;10.40;99.90;;;;;;5075727;28;20035;-50
2022/10/12 07:34:16;;;;;;;17.75;4.57;;;10.40;99.90;;;;;;5084937;28;20044;-40
2022/10/12 07:36:43;;;;;;;12.73;4.28;;;10.50;99.90;;;;;;5073325;28;20056;-35
2022/10/12 07:39:09;;;;;;;21.10;4.95;;;10.60;99.90;;;;;;5082595;28;20036;-32
2022/10/12 07:41:35;;;;;;;7.57;3.47;;;10.70;99.90;;;;;;5088211;28;20476;-33
2022/10/12 07:44:00;;;;;;;18.40;5.50;;;10.70;99.90;;;;;;5075373;28;20036;-36
2022/10/12 07:46:26;;;;;;;9.82;4.75;;;10.70;99.90;;;;;;5079865;28;20440;-30
2022/10/12 07:48:52;;;;;;;12.05;4.22;;;10.60;99.90;;;;;;5077575;28;20028;-38
2022/10/12 07:51:17;;;;;;;20.92;5.57;;;10.60;99.90;;;;;;5081005;28;20067;-32
2022/10/12 07:53:43;;;;;;;6.85;3.95;;;10.60;99.90;;;;;;5085430;28;20030;-33
2022/10/12 07:56:14;;;;;;;8.77;3.40;;;10.50;99.90;;;;;;5080171;28;20028;-37
2022/10/12 07:58:40;;;;;;;9.70;4.07;;;10.50;99.90;;;;;;5074280;28;20020;-33
2022/10/12 08:01:08;;;;;;;8.85;4.38;;;10.50;99.90;;;;;;5073355;28;20485;-33
2022/10/12 08:03:34;;;;;;;10.10;4.72;;;10.50;99.90;;;;;;5092582;28;20028;-33
2022/10/12 08:06:10;;;;;;;8.52;3.83;;;10.50;99.90;;;;;;5092333;28;20423;-31
2022/10/12 08:08:36;;;;;;;15.60;4.28;;;10.60;99.90;;;;;;5093261;28;20069;-34
2022/10/12 08:11:03;;;;;;;11.15;3.90;;;10.70;99.90;;;;;;5091432;28;20019;-31
2022/10/12 08:13:30;;;;;;;14.87;3.87;;;10.80;99.90;;;;;;5079310;28;20082;-34
2022/10/12 08:15:55;;;;;;;8.68;4.28;;;10.90;99.90;;;;;;5077222;28;20031;-36
2022/10/12 08:18:21;;;;;;;13.50;3.85;;;11.00;99.90;;;;;;5092963;28;20028;-35
2022/10/12 08:20:47;;;;;;;7.80;4.32;;;11.00;99.90;;;;;;5079848;28;20626;-37
2022/10/12 08:23:12;;;;;;;10.48;4.10;;;11.10;99.90;;;;;;5072865;28;20505;-42
2022/10/12 08:25:38;;;;;;;13.00;3.60;;;11.20;99.90;;;;;;5072892;28;20029;-41
2022/10/12 08:28:05;;;;;;;11.32;4.10;;;11.20;99.90;;;;;;5072443;28;20036;-40
2022/10/12 08:30:32;;;;;;;17.10;4.60;;;11.20;99.90;;;;;;5072933;28;20511;-39
2022/10/12 08:32:58;;;;;;;10.97;4.60;;;11.20;99.90;;;;;;5076073;28;20368;-56
2022/10/12 08:35:24;;;;;;;11.25;4.20;;;11.40;99.90;;;;;;5074696;28;20024;-38
2022/10/12 08:37:50;;;;;;;9.82;3.90;;;11.50;99.90;;;;;;5059896;28;20040;-42
2022/10/12 08:40:29;;;;;;;9.65;4.50;;;11.70;99.90;;;;;;5087888;28;20454;-42
2022/10/12 08:43:02;;;;;;;9.52;3.97;;;11.90;99.90;;;;;;5081244;28;20055;-42
2022/10/12 08:45:52;;;;;;;13.40;4.18;;;12.00;99.90;;;;;;5088581;28;20028;-40
2022/10/12 08:48:27;;;;;;;9.10;4.68;;;12.20;99.90;;;;;;5055149;28;20183;-46
2022/10/12 08:50:56;;;;;;;9.18;4.78;;;12.40;99.90;;;;;;5083114;28;20028;-40
2022/10/12 08:53:31;;;;;;;7.40;4.13;;;12.50;99.90;;;;;;5084129;28;20508;-58
2022/10/12 08:55:57;;;;;;;9.82;4.70;;;12.50;99.90;;;;;;5082878;28;20032;-55
2022/10/12 08:58:35;;;;;;;8.45;4.75;;;12.60;99.90;;;;;;5084037;28;20476;-41
2022/10/12 09:01:36;;;;;;;6.25;4.00;;;12.60;99.90;;;;;;5087944;28;20129;-69
2022/10/12 09:04:19;;;;;;;11.77;3.67;;;12.70;99.90;;;;;;5072508;28;20024;-40
2022/10/12 09:07:09;;;;;;;12.48;4.93;;;12.80;99.90;;;;;;5088168;28;20036;-43
2022/10/12 09:10:04;;;;;;;16.52;4.63;;;12.80;99.90;;;;;;5090818;28;20031;-42
2022/10/12 09:12:50;;;;;;;13.10;3.75;;;12.90;99.90;;;;;;5083312;28;20097;-36
2022/10/12 09:15:27;;;;;;;9.73;4.43;;;13.00;99.90;;;;;;5083863;28;20481;-40
2022/10/12 09:17:55;;;;;;;8.18;4.07;;;13.20;99.90;;;;;;5075495;28;20020;-43
2022/10/12 09:20:21;;;;;;;10.63;3.80;;;13.40;99.90;;;;;;5076185;28;20097;-39
2022/10/12 09:22:57;;;;;;;6.55;3.42;;;13.60;99.90;;;;;;5080784;28;20083;-39
2022/10/12 09:25:26;;;;;;;18.13;3.80;;;13.70;99.90;;;;;;5087032;28;20111;-39
2022/10/12 09:27:55;;;;;;;16.45;4.43;;;13.70;99.90;;;;;;5092017;28;20476;-41
2022/10/12 09:30:21;;;;;;;10.75;3.92;;;13.80;99.90;;;;;;5091577;28;20483;-43
2022/10/12 09:33:13;;;;;;;6.47;3.65;;;13.90;99.90;;;;;;5091108;28;20095;-41
2022/10/12 09:35:41;;;;;;;10.93;3.80;;;13.80;99.90;;;;;;5090524;28;20031;-42
2022/10/12 09:38:09;;;;;;;14.20;4.22;;;14.00;99.90;;;;;;5079303;28;20500;-41
2022/10/12 09:40:34;;;;;;;9.50;4.97;;;14.00;99.90;;;;;;5080988;28;20476;-39
2022/10/12 09:43:01;;;;;;;10.73;3.95;;;14.00;99.90;;;;;;5089297;28;20039;-37
2022/10/12 09:45:31;;;;;;;8.85;4.43;;;14.00;99.90;;;;;;5087145;28;20403;-44
2022/10/12 09:48:16;;;;;;;5.80;3.58;;;14.20;99.90;;;;;;5095949;28;20383;-39
2022/10/12 09:50:50;;;;;;;14.18;3.35;;;14.30;99.90;;;;;;5082191;28;20029;-54
2022/10/12 09:53:24;;;;;;;11.13;3.60;;;14.50;99.90;;;;;;5076802;28;20055;-57
2022/10/12 09:55:55;;;;;;;7.63;4.22;;;14.50;99.90;;;;;;5089992;28;20109;-41
2022/10/12 09:58:21;;;;;;;15.23;3.85;;;14.70;99.90;;;;;;5095277;28;20533;-44
2022/10/12 10:01:20;;;;;;;11.55;4.25;;;14.60;99.90;;;;;;5088866;28;20480;-39
2022/10/12 10:04:08;;;;;;;10.43;4.22;;;14.60;99.90;;;;;;5086580;28;20027;-42
2022/10/12 10:06:38;;;;;;;8.40;3.47;;;14.70;99.90;;;;;;5085720;28;20365;-44
2022/10/12 10:09:04;;;;;;;7.60;4.35;;;14.80;99.90;;;;;;5084882;28;20032;-41
2022/10/12 10:11:30;;;;;;;14.65;4.05;;;14.90;99.90;;;;;;5075243;28;20021;-40
2022/10/12 10:13:58;;;;;;;7.82;3.95;;;14.90;99.90;;;;;;5081743;28;20028;-49
2022/10/12 10:16:27;;;;;;;7.45;3.88;;;14.90;99.90;;;;;;5091294;28;20111;-40
2022/10/12 10:18:52;;;;;;;8.77;5.05;;;14.80;99.90;;;;;;5095061;28;20032;-41
2022/10/12 10:21:31;;;;;;;9.35;3.75;;;14.80;99.90;;;;;;5081677;28;20392;-41
2022/10/12 10:24:30;;;;;;;9.02;4.10;;;14.90;99.90;;;;;;5093722;28;20028;-41
2022/10/12 10:26:58;;;;;;;7.82;3.75;;;15.10;99.90;;;;;;5091276;28;20457;-41
2022/10/12 10:29:30;;;;;;;10.45;2.92;;;15.30;99.90;;;;;;5077340;28;20469;-48
2022/10/12 10:32:27;;;;;;;9.68;3.35;;;15.50;99.90;;;;;;5093661;28;20603;-45
2022/10/12 10:35:01;;;;;;;6.60;3.25;;;15.50;99.90;;;;;;5094190;28;20085;-41
2022/10/12 10:37:27;;;;;;;7.80;2.78;;;15.60;99.90;;;;;;5093748;28;20048;-41
2022/10/12 10:39:54;;;;;;;12.07;3.90;;;15.70;99.90;;;;;;5091420;28;20025;-45
2022/10/12 10:42:38;;;;;;;;;;;15.70;99.90;;;;;;5094513;28;20028;-62
2022/10/12 10:45:09;;;;;;;10.45;3.10;;;15.80;99.90;;;;;;5084508;28;19908;-41
2022/10/12 10:47:45;;;;;;;12.05;2.60;;;15.90;99.90;;;;;;5085380;28;20057;-41
2022/10/12 10:50:36;;;;;;;12.25;2.47;;;15.90;99.90;;;;;;5056594;28;20573;-42
2022/10/12 10:53:05;;;;;;;12.10;3.08;;;15.90;99.90;;;;;;5081004;28;20050;-43
2022/10/12 10:56:04;;;;;;;7.90;2.50;;;15.90;99.90;;;;;;5083716;28;20040;-42
2022/10/12 10:58:37;;;;;;;7.57;2.47;;;16.00;99.90;;;;;;5087296;28;20488;-47
2022/10/12 11:01:14;;;;;;;6.72;2.33;;;16.00;99.90;;;;;;5076961;28;20024;-41
2022/10/12 11:04:03;;;;;;;4.57;3.08;;;16.00;99.90;;;;;;5089537;28;20016;-47
2022/10/12 11:06:39;;;;;;;12.95;3.20;;;16.20;99.90;;;;;;5080598;28;20032;-40
2022/10/12 11:09:18;;;;;;;8.52;2.80;;;16.30;99.90;;;;;;5093638;28;20109;-41
2022/10/12 11:11:47;;;;;;;10.52;3.63;;;16.30;99.90;;;;;;5055359;28;20126;-39
2022/10/12 11:14:14;;;;;;;8.85;3.15;;;16.30;99.90;;;;;;5057451;28;20107;-38
2022/10/12 11:16:51;;;;;;;10.43;3.83;;;16.30;99.90;;;;;;5078685;28;20041;-41
2022/10/12 11:19:35;;;;;;;21.45;3.47;;;16.30;99.90;;;;;;5076164;28;20488;-42
2022/10/12 11:22:29;;;;;;;6.70;2.95;;;16.30;99.90;;;;;;5084677;28;20028;-40
2022/10/12 11:25:07;;;;;;;13.57;3.88;;;16.40;99.90;;;;;;5083923;28;20342;-41
2022/10/12 11:27:37;;;;;;;;;;;16.50;99.90;;;;;;5090155;28;20044;-41
2022/10/12 11:30:12;;;;;;;14.95;3.50;;;16.50;99.90;;;;;;5088860;28;19908;-41
2022/10/12 11:32:40;;;;;;;9.32;3.65;;;16.60;99.90;;;;;;5073537;28;20093;-39
2022/10/12 11:35:13;;;;;;;6.05;2.72;;;16.60;99.90;;;;;;5084851;28;20525;-40
2022/10/12 11:37:46;;;;;;;10.70;3.85;;;16.60;99.90;;;;;;5089923;28;20496;-43
2022/10/12 11:40:20;;;;;;;13.48;3.85;;;16.50;99.90;;;;;;5085255;28;20040;-43
2022/10/12 11:42:48;;;;;;;17.02;4.28;;;16.40;99.90;;;;;;5089947;28;20019;-40
2022/10/12 11:45:28;;;;;;;9.93;3.70;;;16.50;99.90;;;;;;5086173;28;20028;-39
2022/10/12 11:48:03;;;;;;;11.43;4.07;;;16.50;99.90;;;;;;5063130;28;20036;-41
2022/10/12 11:50:38;;;;;;;8.18;3.65;;;16.40;99.90;;;;;;5075730;28;20024;-39
2022/10/12 11:53:18;;;;;;;9.45;3.35;;;16.40;99.90;;;;;;5090548;28;20503;-37
2022/10/12 11:56:03;;;;;;;7.85;3.45;;;16.40;99.90;;;;;;5079908;28;20415;-39
2022/10/12 11:58:31;;;;;;;15.93;3.50;;;16.50;99.90;;;;;;5083120;28;20534;-47
2022/10/12 12:01:08;;;;;;;18.60;5.00;;;16.50;99.90;;;;;;5083184;28;20028;-41
2022/10/12 12:04:01;;;;;;;14.95;3.47;;;16.50;99.90;;;;;;5086605;28;20024;-40
2022/10/12 12:06:30;;;;;;;13.07;3.28;;;16.40;99.90;;;;;;5072877;28;20029;-38
2022/10/12 12:09:01;;;;;;;12.30;3.60;;;16.30;99.90;;;;;;5074500;28;20056;-44
2022/10/12 12:11:30;;;;;;;9.70;4.15;;;16.40;99.90;;;;;;5088800;28;20370;-40
2022/10/12 12:14:20;;;;;;;8.38;3.28;;;16.40;99.90;;;;;;5093213;28;20369;-43
2022/10/12 12:16:47;;;;;;;10.07;3.60;;;16.40;99.90;;;;;;5075656;28;20415;-45
2022/10/12 12:19:35;;;;;;;6.35;3.22;;;16.50;99.90;;;;;;5069307;28;20127;-42
2022/10/12 12:22:35;;;;;;;7.30;3.28;;;16.40;99.90;;;;;;5072236;28;20102;-41
2022/10/12 12:25:14;;;;;;;15.73;4.97;;;16.60;99.90;;;;;;5058182;28;20036;-40
2022/10/12 12:28:05;;;;;;;13.05;3.88;;;16.90;99.90;;;;;;5074786;28;20070;-42
2022/10/12 12:30:34;;;;;;;14.07;5.03;;;17.10;99.90;;;;;;5074227;28;20028;-40
2022/10/12 12:33:05;;;;;;;10.27;5.47;;;17.40;99.90;;;;;;5076493;28;20087;-41
2022/10/12 12:35:59;;;;;;;9.05;4.97;;;17.40;99.90;;;;;;5084421;28;20024;-41
2022/10/12 12:38:29;;;;;;;10.52;4.63;;;17.30;99.90;;;;;;5091696;28;20036;-41
2022/10/12 12:41:08;;;;;;;8.52;5.15;;;17.10;99.90;;;;;;5092064;28;20034;-40
2022/10/12 12:43:37;;;;;;;10.32;4.53;;;16.90;99.90;;;;;;5076631;28;20025;-41
2022/10/12 12:46:06;;;;;;;12.70;5.28;;;16.70;99.90;;;;;;5085791;28;20480;-41
2022/10/12 12:48:38;;;;;;;14.18;5.05;;;16.60;99.90;;;;;;5091367;28;20074;-40
2022/10/12 12:51:13;;;;;;;10.35;4.95;;;16.40;99.90;;;;;;5082231;28;20051;-39
2022/10/12 12:53:44;;;;;;;12.30;5.57;;;16.40;99.90;;;;;;5075794;28;20469;-42
2022/10/12 12:56:21;;;;;;;18.10;5.97;;;16.40;99.90;;;;;;5074209;28;20385;-43
2022/10/12 12:59:10;;;;;;;11.02;4.70;;;16.40;99.90;;;;;;5071851;28;20029;-44
2022/10/12 13:01:57;;;;;;;10.90;4.65;;;16.30;99.90;;;;;;5074125;28;20059;-42
2022/10/12 13:04:38;;;;;;;12.50;5.78;;;16.30;99.90;;;;;;5074851;28;20508;-51
2022/10/12 13:07:24;;;;;;;17.15;5.88;;;16.30;99.90;;;;;;5075193;28;20418;-41